sensor_id;sensor_type;location;lat;lon;timestamp;temperature;humidity
70294;DHT22;74367;35.280;-77.632;2024-02-16T00:00:08;15.62;49.96
70294;DHT22;74367;35.280;-77.632;2024-02-16T00:02:38;15.47;51.42
70294;DHT22;74367;35.280;-77.632;2024-02-16T00:05:06;15.37;52.43
70294;DHT22;74367;35.280;-77.632;2024-02-16T00:07:33;15.37;51.55
70294;DHT22;74367;35.280;-77.632;2024-02-16T00:10:00;15.40;51.57
70294;DHT22;74367;35.280;-77.632;2024-02-16T00:12:26;15.38;52.19
70294;DHT22;74367;35.280;-77.632;2024-02-16T00:14:52;15.23;53.35
70294;DHT22;74367;35.280;-77.632;2024-02-16T00:17:18;15.17;52.92
70294;DHT22;74367;35.280;-77.632;2024-02-16T00:19:44;15.17;53.99
70294;DHT22;74367;35.280;-77.632;2024-02-16T00:22:10;15.24;53.25
70294;DHT22;74367;35.280;-77.632;2024-02-16T00:24:37;15.17;53.89
70294;DHT22;74367;35.280;-77.632;2024-02-16T00:27:04;15.03;54.82
70294;DHT22;74367;35.280;-77.632;2024-02-16T00:29:32;14.97;55.79
70294;DHT22;74367;35.280;-77.632;2024-02-16T00:31:58;14.90;56.59
70294;DHT22;74367;35.280;-77.632;2024-02-16T00:34:26;14.83;56.61
70294;DHT22;74367;35.280;-77.632;2024-02-16T00:36:52;14.76;57.34
70294;DHT22;74367;35.280;-77.632;2024-02-16T00:39:18;14.80;56.34
70294;DHT22;74367;35.280;-77.632;2024-02-16T00:41:45;14.77;56.98
70294;DHT22;74367;35.280;-77.632;2024-02-16T00:44:14;14.65;59.57
70294;DHT22;74367;35.280;-77.632;2024-02-16T00:46:41;14.80;57.31
70294;DHT22;74367;35.280;-77.632;2024-02-16T00:49:07;14.77;57.53
70294;DHT22;74367;35.280;-77.632;2024-02-16T00:51:36;14.68;58.59
70294;DHT22;74367;35.280;-77.632;2024-02-16T00:54:03;14.56;59.90
70294;DHT22;74367;35.280;-77.632;2024-02-16T00:56:30;14.51;60.19
70294;DHT22;74367;35.280;-77.632;2024-02-16T00:58:56;14.48;59.61
70294;DHT22;74367;35.280;-77.632;2024-02-16T01:01:22;14.56;59.76
70294;DHT22;74367;35.280;-77.632;2024-02-16T01:03:52;14.46;60.43
70294;DHT22;74367;35.280;-77.632;2024-02-16T01:06:19;14.46;60.21
70294;DHT22;74367;35.280;-77.632;2024-02-16T01:08:45;14.26;61.53
70294;DHT22;74367;35.280;-77.632;2024-02-16T01:11:15;14.36;61.29
70294;DHT22;74367;35.280;-77.632;2024-02-16T01:13:40;14.34;61.97
70294;DHT22;74367;35.280;-77.632;2024-02-16T01:16:07;14.32;61.94
70294;DHT22;74367;35.280;-77.632;2024-02-16T01:18:32;14.35;61.92
70294;DHT22;74367;35.280;-77.632;2024-02-16T01:21:02;14.24;63.18
70294;DHT22;74367;35.280;-77.632;2024-02-16T01:23:29;14.24;63.08
70294;DHT22;74367;35.280;-77.632;2024-02-16T01:25:55;14.17;63.94
70294;DHT22;74367;35.280;-77.632;2024-02-16T01:28:21;14.07;64.90
70294;DHT22;74367;35.280;-77.632;2024-02-16T01:30:49;14.08;64.30
70294;DHT22;74367;35.280;-77.632;2024-02-16T01:33:15;14.08;64.85
70294;DHT22;74367;35.280;-77.632;2024-02-16T01:35:41;14.10;65.31
70294;DHT22;74367;35.280;-77.632;2024-02-16T01:38:07;14.03;65.65
70294;DHT22;74367;35.280;-77.632;2024-02-16T01:40:33;14.00;66.61
70294;DHT22;74367;35.280;-77.632;2024-02-16T01:42:59;14.00;66.52
70294;DHT22;74367;35.280;-77.632;2024-02-16T01:45:25;13.95;66.86
70294;DHT22;74367;35.280;-77.632;2024-02-16T01:47:51;14.04;66.84
70294;DHT22;74367;35.280;-77.632;2024-02-16T01:50:19;13.94;67.73
70294;DHT22;74367;35.280;-77.632;2024-02-16T01:52:46;13.86;68.63
70294;DHT22;74367;35.280;-77.632;2024-02-16T01:55:13;13.83;68.45
70294;DHT22;74367;35.280;-77.632;2024-02-16T01:57:43;13.90;68.32
70294;DHT22;74367;35.280;-77.632;2024-02-16T02:00:09;13.98;67.89
70294;DHT22;74367;35.280;-77.632;2024-02-16T02:02:36;13.91;68.84
70294;DHT22;74367;35.280;-77.632;2024-02-16T02:05:02;13.88;68.98
70294;DHT22;74367;35.280;-77.632;2024-02-16T02:07:29;13.93;68.92
70294;DHT22;74367;35.280;-77.632;2024-02-16T02:09:56;13.86;69.97
70294;DHT22;74367;35.280;-77.632;2024-02-16T02:12:22;13.84;70.00
70294;DHT22;74367;35.280;-77.632;2024-02-16T02:14:50;13.80;70.29
70294;DHT22;74367;35.280;-77.632;2024-02-16T02:17:18;13.74;70.65
70294;DHT22;74367;35.280;-77.632;2024-02-16T02:19:47;13.73;71.01
70294;DHT22;74367;35.280;-77.632;2024-02-16T02:22:17;13.76;71.17
70294;DHT22;74367;35.280;-77.632;2024-02-16T02:24:47;13.77;70.86
70294;DHT22;74367;35.280;-77.632;2024-02-16T02:27:17;13.78;71.22
70294;DHT22;74367;35.280;-77.632;2024-02-16T02:29:43;13.74;71.68
70294;DHT22;74367;35.280;-77.632;2024-02-16T02:32:10;13.73;71.74
70294;DHT22;74367;35.280;-77.632;2024-02-16T02:34:36;13.66;72.14
70294;DHT22;74367;35.280;-77.632;2024-02-16T02:37:02;13.69;72.15
70294;DHT22;74367;35.280;-77.632;2024-02-16T02:39:29;13.66;72.75
70294;DHT22;74367;35.280;-77.632;2024-02-16T02:41:55;13.67;72.41
70294;DHT22;74367;35.280;-77.632;2024-02-16T02:44:26;13.57;73.42
70294;DHT22;74367;35.280;-77.632;2024-02-16T02:46:52;13.57;73.17
70294;DHT22;74367;35.280;-77.632;2024-02-16T02:49:18;13.53;73.39
70294;DHT22;74367;35.280;-77.632;2024-02-16T02:51:45;13.55;73.34
70294;DHT22;74367;35.280;-77.632;2024-02-16T02:54:11;13.55;73.75
70294;DHT22;74367;35.280;-77.632;2024-02-16T02:56:37;13.45;74.22
70294;DHT22;74367;35.280;-77.632;2024-02-16T02:59:03;13.45;74.06
70294;DHT22;74367;35.280;-77.632;2024-02-16T03:01:31;13.42;74.31
70294;DHT22;74367;35.280;-77.632;2024-02-16T03:03:57;13.32;74.64
70294;DHT22;74367;35.280;-77.632;2024-02-16T03:06:25;13.35;74.79
70294;DHT22;74367;35.280;-77.632;2024-02-16T03:08:51;13.35;75.16
70294;DHT22;74367;35.280;-77.632;2024-02-16T03:11:17;13.29;75.54
70294;DHT22;74367;35.280;-77.632;2024-02-16T03:13:43;13.27;75.60
70294;DHT22;74367;35.280;-77.632;2024-02-16T03:16:09;13.26;75.74
70294;DHT22;74367;35.280;-77.632;2024-02-16T03:18:35;13.23;75.55
70294;DHT22;74367;35.280;-77.632;2024-02-16T03:21:01;13.15;76.45
70294;DHT22;74367;35.280;-77.632;2024-02-16T03:23:27;13.15;76.11
70294;DHT22;74367;35.280;-77.632;2024-02-16T03:25:53;13.06;76.53
70294;DHT22;74367;35.280;-77.632;2024-02-16T03:28:20;13.06;76.60
70294;DHT22;74367;35.280;-77.632;2024-02-16T03:30:46;13.15;76.38
70294;DHT22;74367;35.280;-77.632;2024-02-16T03:33:13;13.11;76.75
70294;DHT22;74367;35.280;-77.632;2024-02-16T03:35:39;13.06;76.79
70294;DHT22;74367;35.280;-77.632;2024-02-16T03:38:06;13.06;76.94
70294;DHT22;74367;35.280;-77.632;2024-02-16T03:40:32;12.92;77.86
70294;DHT22;74367;35.280;-77.632;2024-02-16T03:42:58;12.94;77.78
70294;DHT22;74367;35.280;-77.632;2024-02-16T03:45:24;12.92;78.35
70294;DHT22;74367;35.280;-77.632;2024-02-16T03:47:52;12.94;77.85
70294;DHT22;74367;35.280;-77.632;2024-02-16T03:50:20;12.94;77.99
70294;DHT22;74367;35.280;-77.632;2024-02-16T03:52:46;12.88;78.07
70294;DHT22;74367;35.280;-77.632;2024-02-16T03:55:12;12.98;78.04
70294;DHT22;74367;35.280;-77.632;2024-02-16T03:57:39;12.94;78.09
70294;DHT22;74367;35.280;-77.632;2024-02-16T04:00:06;12.80;78.58
70294;DHT22;74367;35.280;-77.632;2024-02-16T04:02:32;13.04;78.25
70294;DHT22;74367;35.280;-77.632;2024-02-16T04:04:58;13.12;78.10
70294;DHT22;74367;35.280;-77.632;2024-02-16T04:07:24;13.02;78.71
70294;DHT22;74367;35.280;-77.632;2024-02-16T04:09:50;12.92;79.00
70294;DHT22;74367;35.280;-77.632;2024-02-16T04:12:16;12.98;79.75
70294;DHT22;74367;35.280;-77.632;2024-02-16T04:14:42;12.95;79.03
70294;DHT22;74367;35.280;-77.632;2024-02-16T04:17:09;12.92;79.15
70294;DHT22;74367;35.280;-77.632;2024-02-16T04:19:36;12.84;79.62
70294;DHT22;74367;35.280;-77.632;2024-02-16T04:22:03;12.95;79.32
70294;DHT22;74367;35.280;-77.632;2024-02-16T04:24:29;12.85;80.08
70294;DHT22;74367;35.280;-77.632;2024-02-16T04:26:55;12.85;80.46
70294;DHT22;74367;35.280;-77.632;2024-02-16T04:29:21;13.08;78.99
70294;DHT22;74367;35.280;-77.632;2024-02-16T04:31:48;12.95;79.57
70294;DHT22;74367;35.280;-77.632;2024-02-16T04:34:14;13.14;79.24
70294;DHT22;74367;35.280;-77.632;2024-02-16T04:36:41;13.11;79.13
70294;DHT22;74367;35.280;-77.632;2024-02-16T04:39:07;13.20;79.27
70294;DHT22;74367;35.280;-77.632;2024-02-16T04:41:35;13.11;79.93
70294;DHT22;74367;35.280;-77.632;2024-02-16T04:44:01;13.12;80.04
70294;DHT22;74367;35.280;-77.632;2024-02-16T04:46:28;13.04;80.24
70294;DHT22;74367;35.280;-77.632;2024-02-16T04:48:54;13.04;80.11
70294;DHT22;74367;35.280;-77.632;2024-02-16T04:51:20;13.01;80.23
70294;DHT22;74367;35.280;-77.632;2024-02-16T04:53:46;13.11;80.34
70294;DHT22;74367;35.280;-77.632;2024-02-16T04:56:12;13.05;80.63
70294;DHT22;74367;35.280;-77.632;2024-02-16T04:58:41;12.99;80.66
70294;DHT22;74367;35.280;-77.632;2024-02-16T05:01:12;12.99;80.77
70294;DHT22;74367;35.280;-77.632;2024-02-16T05:03:38;12.97;81.27
70294;DHT22;74367;35.280;-77.632;2024-02-16T05:06:06;13.01;81.06
70294;DHT22;74367;35.280;-77.632;2024-02-16T05:08:32;13.05;80.71
70294;DHT22;74367;35.280;-77.632;2024-02-16T05:11:00;13.01;81.01
70294;DHT22;74367;35.280;-77.632;2024-02-16T05:13:26;13.06;80.48
70294;DHT22;74367;35.280;-77.632;2024-02-16T05:15:52;13.02;80.72
70294;DHT22;74367;35.280;-77.632;2024-02-16T05:18:22;12.98;81.10
70294;DHT22;74367;35.280;-77.632;2024-02-16T05:20:48;12.98;80.75
70294;DHT22;74367;35.280;-77.632;2024-02-16T05:23:14;13.04;80.49
70294;DHT22;74367;35.280;-77.632;2024-02-16T05:25:40;13.06;80.20
70294;DHT22;74367;35.280;-77.632;2024-02-16T05:28:06;13.06;80.84
70294;DHT22;74367;35.280;-77.632;2024-02-16T05:30:32;12.98;80.80
70294;DHT22;74367;35.280;-77.632;2024-02-16T05:32:58;13.01;80.49
70294;DHT22;74367;35.280;-77.632;2024-02-16T05:35:24;13.08;79.99
70294;DHT22;74367;35.280;-77.632;2024-02-16T05:37:54;12.97;80.93
70294;DHT22;74367;35.280;-77.632;2024-02-16T05:40:20;13.01;80.74
70294;DHT22;74367;35.280;-77.632;2024-02-16T05:42:56;12.95;80.69
70294;DHT22;74367;35.280;-77.632;2024-02-16T05:45:24;12.99;80.56
70294;DHT22;74367;35.280;-77.632;2024-02-16T05:47:50;12.99;80.47
70294;DHT22;74367;35.280;-77.632;2024-02-16T05:50:17;12.97;80.58
70294;DHT22;74367;35.280;-77.632;2024-02-16T05:52:44;13.01;80.39
70294;DHT22;74367;35.280;-77.632;2024-02-16T05:55:11;12.98;80.82
70294;DHT22;74367;35.280;-77.632;2024-02-16T05:57:37;12.95;80.59
70294;DHT22;74367;35.280;-77.632;2024-02-16T06:00:05;12.81;81.48
70294;DHT22;74367;35.280;-77.632;2024-02-16T06:02:34;12.92;80.98
70294;DHT22;74367;35.280;-77.632;2024-02-16T06:05:02;12.98;80.93
70294;DHT22;74367;35.280;-77.632;2024-02-16T06:07:29;13.06;79.80
70294;DHT22;74367;35.280;-77.632;2024-02-16T06:09:56;12.91;80.84
70294;DHT22;74367;35.280;-77.632;2024-02-16T06:12:22;12.91;80.33
70294;DHT22;74367;35.280;-77.632;2024-02-16T06:14:48;12.85;80.96
70294;DHT22;74367;35.280;-77.632;2024-02-16T06:17:15;12.77;81.11
70294;DHT22;74367;35.280;-77.632;2024-02-16T06:19:42;12.83;80.37
70294;DHT22;74367;35.280;-77.632;2024-02-16T06:22:09;12.74;81.12
70294;DHT22;74367;35.280;-77.632;2024-02-16T06:24:35;12.77;80.65
70294;DHT22;74367;35.280;-77.632;2024-02-16T06:27:02;12.74;81.10
70294;DHT22;74367;35.280;-77.632;2024-02-16T06:29:28;12.69;81.27
70294;DHT22;74367;35.280;-77.632;2024-02-16T06:31:56;12.65;81.46
70294;DHT22;74367;35.280;-77.632;2024-02-16T06:34:23;12.64;80.90
70294;DHT22;74367;35.280;-77.632;2024-02-16T06:36:49;12.77;80.30
70294;DHT22;74367;35.280;-77.632;2024-02-16T06:39:16;12.80;79.80
70294;DHT22;74367;35.280;-77.632;2024-02-16T06:41:45;12.71;80.70
70294;DHT22;74367;35.280;-77.632;2024-02-16T06:44:12;12.73;80.63
70294;DHT22;74367;35.280;-77.632;2024-02-16T06:46:38;12.65;81.20
70294;DHT22;74367;35.280;-77.632;2024-02-16T06:49:04;12.74;80.51
70294;DHT22;74367;35.280;-77.632;2024-02-16T06:51:30;12.69;80.56
70294;DHT22;74367;35.280;-77.632;2024-02-16T06:53:56;12.63;81.40
70294;DHT22;74367;35.280;-77.632;2024-02-16T06:56:22;12.68;80.70
70294;DHT22;74367;35.280;-77.632;2024-02-16T06:58:48;12.63;81.22
70294;DHT22;74367;35.280;-77.632;2024-02-16T07:01:15;12.73;80.63
70294;DHT22;74367;35.280;-77.632;2024-02-16T07:03:43;12.67;80.63
70294;DHT22;74367;35.280;-77.632;2024-02-16T07:06:10;12.60;80.98
70294;DHT22;74367;35.280;-77.632;2024-02-16T07:08:39;12.50;81.32
70294;DHT22;74367;35.280;-77.632;2024-02-16T07:11:05;12.53;81.38
70294;DHT22;74367;35.280;-77.632;2024-02-16T07:13:34;12.47;81.46
70294;DHT22;74367;35.280;-77.632;2024-02-16T07:16:01;12.48;81.13
70294;DHT22;74367;35.280;-77.632;2024-02-16T07:18:27;12.33;82.20
70294;DHT22;74367;35.280;-77.632;2024-02-16T07:20:53;12.41;81.77
70294;DHT22;74367;35.280;-77.632;2024-02-16T07:23:19;12.38;81.50
70294;DHT22;74367;35.280;-77.632;2024-02-16T07:25:45;12.34;81.52
70294;DHT22;74367;35.280;-77.632;2024-02-16T07:28:11;12.34;81.79
70294;DHT22;74367;35.280;-77.632;2024-02-16T07:30:37;12.38;81.64
70294;DHT22;74367;35.280;-77.632;2024-02-16T07:33:06;12.36;81.27
70294;DHT22;74367;35.280;-77.632;2024-02-16T07:35:35;12.33;81.53
70294;DHT22;74367;35.280;-77.632;2024-02-16T07:38:02;12.27;81.94
70294;DHT22;74367;35.280;-77.632;2024-02-16T07:40:28;12.34;81.21
70294;DHT22;74367;35.280;-77.632;2024-02-16T07:42:54;12.30;81.42
70294;DHT22;74367;35.280;-77.632;2024-02-16T07:45:21;12.23;81.90
70294;DHT22;74367;35.280;-77.632;2024-02-16T07:47:47;12.13;82.24
70294;DHT22;74367;35.280;-77.632;2024-02-16T07:50:17;12.05;81.98
70294;DHT22;74367;35.280;-77.632;2024-02-16T07:52:43;12.06;82.55
70294;DHT22;74367;35.280;-77.632;2024-02-16T07:55:09;12.05;81.71
70294;DHT22;74367;35.280;-77.632;2024-02-16T07:57:35;12.03;81.84
70294;DHT22;74367;35.280;-77.632;2024-02-16T08:00:02;12.06;81.36
70294;DHT22;74367;35.280;-77.632;2024-02-16T08:02:29;12.02;81.86
70294;DHT22;74367;35.280;-77.632;2024-02-16T08:04:55;11.92;82.82
70294;DHT22;74367;35.280;-77.632;2024-02-16T08:07:21;11.92;82.12
70294;DHT22;74367;35.280;-77.632;2024-02-16T08:09:47;11.86;82.05
70294;DHT22;74367;35.280;-77.632;2024-02-16T08:12:13;11.79;82.13
70294;DHT22;74367;35.280;-77.632;2024-02-16T08:14:39;11.78;81.76
70294;DHT22;74367;35.280;-77.632;2024-02-16T08:17:06;11.83;81.90
70294;DHT22;74367;35.280;-77.632;2024-02-16T08:19:35;11.81;81.50
70294;DHT22;74367;35.280;-77.632;2024-02-16T08:22:02;11.81;81.68
70294;DHT22;74367;35.280;-77.632;2024-02-16T08:24:28;11.85;81.53
70294;DHT22;74367;35.280;-77.632;2024-02-16T08:26:55;11.85;80.69
70294;DHT22;74367;35.280;-77.632;2024-02-16T08:29:22;11.72;82.25
70294;DHT22;74367;35.280;-77.632;2024-02-16T08:31:49;11.75;81.88
70294;DHT22;74367;35.280;-77.632;2024-02-16T08:34:16;11.69;82.07
70294;DHT22;74367;35.280;-77.632;2024-02-16T08:36:49;11.67;81.64
70294;DHT22;74367;35.280;-77.632;2024-02-16T08:39:16;11.59;82.24
70294;DHT22;74367;35.280;-77.632;2024-02-16T08:41:44;11.58;81.96
70294;DHT22;74367;35.280;-77.632;2024-02-16T08:44:10;11.54;81.32
70294;DHT22;74367;35.280;-77.632;2024-02-16T08:46:36;11.50;81.23
70294;DHT22;74367;35.280;-77.632;2024-02-16T08:49:03;11.48;81.97
70294;DHT22;74367;35.280;-77.632;2024-02-16T08:51:29;11.47;81.65
70294;DHT22;74367;35.280;-77.632;2024-02-16T08:53:55;11.40;81.53
70294;DHT22;74367;35.280;-77.632;2024-02-16T08:56:21;11.32;81.81
70294;DHT22;74367;35.280;-77.632;2024-02-16T08:58:47;11.38;82.20
70294;DHT22;74367;35.280;-77.632;2024-02-16T09:01:13;11.30;82.80
70294;DHT22;74367;35.280;-77.632;2024-02-16T09:03:39;11.28;81.86
70294;DHT22;74367;35.280;-77.632;2024-02-16T09:06:06;11.18;82.58
70294;DHT22;74367;35.280;-77.632;2024-02-16T09:08:32;11.23;82.71
70294;DHT22;74367;35.280;-77.632;2024-02-16T09:11:01;11.26;82.51
70294;DHT22;74367;35.280;-77.632;2024-02-16T09:13:34;11.20;82.85
70294;DHT22;74367;35.280;-77.632;2024-02-16T09:16:02;11.14;82.30
70294;DHT22;74367;35.280;-77.632;2024-02-16T09:18:30;11.24;81.71
70294;DHT22;74367;35.280;-77.632;2024-02-16T09:20:56;11.18;82.45
70294;DHT22;74367;35.280;-77.632;2024-02-16T09:23:22;11.07;82.14
70294;DHT22;74367;35.280;-77.632;2024-02-16T09:25:48;11.09;81.81
70294;DHT22;74367;35.280;-77.632;2024-02-16T09:28:16;11.06;82.13
70294;DHT22;74367;35.280;-77.632;2024-02-16T09:30:45;11.04;81.89
70294;DHT22;74367;35.280;-77.632;2024-02-16T09:33:11;11.01;81.32
70294;DHT22;74367;35.280;-77.632;2024-02-16T09:35:37;10.99;81.91
70294;DHT22;74367;35.280;-77.632;2024-02-16T09:38:03;10.83;81.74
70294;DHT22;74367;35.280;-77.632;2024-02-16T09:40:29;10.81;82.36
70294;DHT22;74367;35.280;-77.632;2024-02-16T09:42:55;10.97;81.09
70294;DHT22;74367;35.280;-77.632;2024-02-16T09:45:24;10.92;81.30
70294;DHT22;74367;35.280;-77.632;2024-02-16T09:47:52;10.86;81.66
70294;DHT22;74367;35.280;-77.632;2024-02-16T09:50:18;10.80;83.24
70294;DHT22;74367;35.280;-77.632;2024-02-16T09:52:48;10.80;81.39
70294;DHT22;74367;35.280;-77.632;2024-02-16T09:55:15;10.76;82.58
70294;DHT22;74367;35.280;-77.632;2024-02-16T09:57:41;10.77;81.11
70294;DHT22;74367;35.280;-77.632;2024-02-16T10:00:09;10.81;80.98
70294;DHT22;74367;35.280;-77.632;2024-02-16T10:02:42;10.75;81.33
70294;DHT22;74367;35.280;-77.632;2024-02-16T10:05:16;10.80;80.55
70294;DHT22;74367;35.280;-77.632;2024-02-16T10:07:43;10.83;80.66
70294;DHT22;74367;35.280;-77.632;2024-02-16T10:12:48;10.77;81.21
70294;DHT22;74367;35.280;-77.632;2024-02-16T10:15:21;10.77;80.95
70294;DHT22;74367;35.280;-77.632;2024-02-16T10:20:26;10.72;80.83
70294;DHT22;74367;35.280;-77.632;2024-02-16T10:23:04;10.68;80.64
70294;DHT22;74367;35.280;-77.632;2024-02-16T10:25:30;10.73;80.62
70294;DHT22;74367;35.280;-77.632;2024-02-16T10:27:57;10.79;80.25
70294;DHT22;74367;35.280;-77.632;2024-02-16T10:30:29;10.63;80.27
70294;DHT22;74367;35.280;-77.632;2024-02-16T10:32:57;10.69;80.18
70294;DHT22;74367;35.280;-77.632;2024-02-16T10:35:25;10.70;80.75
70294;DHT22;74367;35.280;-77.632;2024-02-16T10:37:51;10.37;82.06
70294;DHT22;74367;35.280;-77.632;2024-02-16T10:40:19;10.31;82.30
70294;DHT22;74367;35.280;-77.632;2024-02-16T10:42:46;10.34;81.85
70294;DHT22;74367;35.280;-77.632;2024-02-16T10:45:14;10.27;82.39
70294;DHT22;74367;35.280;-77.632;2024-02-16T10:47:40;10.31;82.17
70294;DHT22;74367;35.280;-77.632;2024-02-16T10:50:07;10.37;81.37
70294;DHT22;74367;35.280;-77.632;2024-02-16T10:52:37;10.32;81.36
70294;DHT22;74367;35.280;-77.632;2024-02-16T10:55:05;10.25;81.52
70294;DHT22;74367;35.280;-77.632;2024-02-16T10:57:31;10.18;82.55
70294;DHT22;74367;35.280;-77.632;2024-02-16T10:59:59;10.15;82.38
70294;DHT22;74367;35.280;-77.632;2024-02-16T11:02:25;10.07;82.71
70294;DHT22;74367;35.280;-77.632;2024-02-16T11:04:52;10.08;82.13
70294;DHT22;74367;35.280;-77.632;2024-02-16T11:07:19;10.22;81.99
70294;DHT22;74367;35.280;-77.632;2024-02-16T11:09:46;10.12;82.19
70294;DHT22;74367;35.280;-77.632;2024-02-16T11:12:14;10.02;82.40
70294;DHT22;74367;35.280;-77.632;2024-02-16T11:14:47;10.04;82.00
70294;DHT22;74367;35.280;-77.632;2024-02-16T11:17:22;10.22;80.87
70294;DHT22;74367;35.280;-77.632;2024-02-16T11:19:49;10.12;81.50
70294;DHT22;74367;35.280;-77.632;2024-02-16T11:22:19;10.04;82.54
70294;DHT22;74367;35.280;-77.632;2024-02-16T11:24:49;10.10;82.39
70294;DHT22;74367;35.280;-77.632;2024-02-16T11:27:17;9.70;82.78
70294;DHT22;74367;35.280;-77.632;2024-02-16T11:29:47;9.87;82.39
70294;DHT22;74367;35.280;-77.632;2024-02-16T11:32:13;9.81;82.07
70294;DHT22;74367;35.280;-77.632;2024-02-16T11:34:39;9.94;81.52
70294;DHT22;74367;35.280;-77.632;2024-02-16T11:37:05;9.94;81.67
70294;DHT22;74367;35.280;-77.632;2024-02-16T11:39:32;9.70;82.18
70294;DHT22;74367;35.280;-77.632;2024-02-16T11:42:02;9.86;81.73
70294;DHT22;74367;35.280;-77.632;2024-02-16T11:44:32;9.80;81.92
70294;DHT22;74367;35.280;-77.632;2024-02-16T11:47:00;9.73;82.41
70294;DHT22;74367;35.280;-77.632;2024-02-16T11:49:28;9.52;82.96
70294;DHT22;74367;35.280;-77.632;2024-02-16T11:51:54;9.47;83.07
70294;DHT22;74367;35.280;-77.632;2024-02-16T11:54:20;9.46;83.28
70294;DHT22;74367;35.280;-77.632;2024-02-16T11:56:47;9.54;82.31
70294;DHT22;74367;35.280;-77.632;2024-02-16T11:59:17;9.42;83.63
70294;DHT22;74367;35.280;-77.632;2024-02-16T12:04:29;9.67;82.14
70294;DHT22;74367;35.280;-77.632;2024-02-16T12:09:23;9.60;84.18
70294;DHT22;74367;35.280;-77.632;2024-02-16T12:11:52;9.50;84.04
70294;DHT22;74367;35.280;-77.632;2024-02-16T12:14:21;9.52;83.67
70294;DHT22;74367;35.280;-77.632;2024-02-16T12:16:48;9.54;83.92
70294;DHT22;74367;35.280;-77.632;2024-02-16T12:19:16;9.60;83.68
70294;DHT22;74367;35.280;-77.632;2024-02-16T12:21:42;9.64;84.77
70294;DHT22;74367;35.280;-77.632;2024-02-16T12:24:08;9.57;85.30
70294;DHT22;74367;35.280;-77.632;2024-02-16T12:26:38;9.60;85.07
70294;DHT22;74367;35.280;-77.632;2024-02-16T12:29:06;9.69;84.29
70294;DHT22;74367;35.280;-77.632;2024-02-16T12:31:34;9.84;83.59
70294;DHT22;74367;35.280;-77.632;2024-02-16T12:34:03;9.71;83.69
70294;DHT22;74367;35.280;-77.632;2024-02-16T12:36:31;9.90;82.80
70294;DHT22;74367;35.280;-77.632;2024-02-16T12:38:56;9.93;83.86
70294;DHT22;74367;35.280;-77.632;2024-02-16T12:41:22;10.00;83.73
70294;DHT22;74367;35.280;-77.632;2024-02-16T12:43:48;10.08;84.53
70294;DHT22;74367;35.280;-77.632;2024-02-16T12:46:14;10.24;82.42
70294;DHT22;74367;35.280;-77.632;2024-02-16T12:48:40;10.42;81.98
70294;DHT22;74367;35.280;-77.632;2024-02-16T12:51:06;10.49;80.92
70294;DHT22;74367;35.280;-77.632;2024-02-16T12:53:32;10.32;81.98
70294;DHT22;74367;35.280;-77.632;2024-02-16T12:56:14;10.38;82.42
70294;DHT22;74367;35.280;-77.632;2024-02-16T12:58:40;10.48;82.66
70294;DHT22;74367;35.280;-77.632;2024-02-16T13:01:06;10.76;81.10
70294;DHT22;74367;35.280;-77.632;2024-02-16T13:03:36;10.73;81.20
70294;DHT22;74367;35.280;-77.632;2024-02-16T13:06:03;11.18;79.32
70294;DHT22;74367;35.280;-77.632;2024-02-16T13:08:30;11.10;80.41
70294;DHT22;74367;35.280;-77.632;2024-02-16T13:10:56;11.10;79.77
70294;DHT22;74367;35.280;-77.632;2024-02-16T13:13:23;11.14;79.38
70294;DHT22;74367;35.280;-77.632;2024-02-16T13:15:49;11.27;80.89
70294;DHT22;74367;35.280;-77.632;2024-02-16T13:18:15;11.52;79.23
70294;DHT22;74367;35.280;-77.632;2024-02-16T13:20:42;11.68;79.05
70294;DHT22;74367;35.280;-77.632;2024-02-16T13:23:09;11.69;79.52
70294;DHT22;74367;35.280;-77.632;2024-02-16T13:25:36;11.77;80.76
70294;DHT22;74367;35.280;-77.632;2024-02-16T13:28:02;11.92;79.49
70294;DHT22;74367;35.280;-77.632;2024-02-16T13:30:28;11.61;79.76
70294;DHT22;74367;35.280;-77.632;2024-02-16T13:32:55;11.90;79.19
70294;DHT22;74367;35.280;-77.632;2024-02-16T13:35:21;12.03;79.05
70294;DHT22;74367;35.280;-77.632;2024-02-16T13:37:47;12.36;78.17
70294;DHT22;74367;35.280;-77.632;2024-02-16T13:40:14;12.20;76.26
70294;DHT22;74367;35.280;-77.632;2024-02-16T13:42:43;11.85;77.17
70294;DHT22;74367;35.280;-77.632;2024-02-16T13:45:09;12.33;77.41
70294;DHT22;74367;35.280;-77.632;2024-02-16T13:47:36;12.41;74.34
70294;DHT22;74367;35.280;-77.632;2024-02-16T13:50:06;12.67;74.78
70294;DHT22;74367;35.280;-77.632;2024-02-16T13:52:32;13.01;72.39
70294;DHT22;74367;35.280;-77.632;2024-02-16T13:55:00;12.89;73.97
70294;DHT22;74367;35.280;-77.632;2024-02-16T13:57:26;12.97;71.98
70294;DHT22;74367;35.280;-77.632;2024-02-16T13:59:52;13.49;71.45
70294;DHT22;74367;35.280;-77.632;2024-02-16T14:02:19;14.00;68.61
70294;DHT22;74367;35.280;-77.632;2024-02-16T14:04:45;14.17;67.78
70294;DHT22;74367;35.280;-77.632;2024-02-16T14:07:11;14.24;67.93
70294;DHT22;74367;35.280;-77.632;2024-02-16T14:09:38;14.36;66.63
70294;DHT22;74367;35.280;-77.632;2024-02-16T14:12:04;13.88;67.81
70294;DHT22;74367;35.280;-77.632;2024-02-16T14:14:30;14.22;66.13
70294;DHT22;74367;35.280;-77.632;2024-02-16T14:16:56;14.24;65.68
70294;DHT22;74367;35.280;-77.632;2024-02-16T14:19:22;14.92;63.46
70294;DHT22;74367;35.280;-77.632;2024-02-16T14:21:48;15.28;62.44
70294;DHT22;74367;35.280;-77.632;2024-02-16T14:24:15;15.00;61.39
70294;DHT22;74367;35.280;-77.632;2024-02-16T14:26:42;14.77;62.93
70294;DHT22;74367;35.280;-77.632;2024-02-16T14:29:09;14.80;64.66
70294;DHT22;74367;35.280;-77.632;2024-02-16T14:31:36;14.53;62.99
70294;DHT22;74367;35.280;-77.632;2024-02-16T14:34:02;14.36;65.44
70294;DHT22;74367;35.280;-77.632;2024-02-16T14:36:28;14.63;64.96
70294;DHT22;74367;35.280;-77.632;2024-02-16T14:38:54;14.71;64.86
70294;DHT22;74367;35.280;-77.632;2024-02-16T14:41:20;14.86;62.10
70294;DHT22;74367;35.280;-77.632;2024-02-16T14:43:47;14.90;63.09
70294;DHT22;74367;35.280;-77.632;2024-02-16T14:46:13;14.93;62.36
70294;DHT22;74367;35.280;-77.632;2024-02-16T14:48:41;15.10;62.67
70294;DHT22;74367;35.280;-77.632;2024-02-16T14:51:07;15.26;61.05
70294;DHT22;74367;35.280;-77.632;2024-02-16T14:53:33;15.23;60.90
70294;DHT22;74367;35.280;-77.632;2024-02-16T14:55:59;15.40;60.42
70294;DHT22;74367;35.280;-77.632;2024-02-16T14:58:25;15.51;60.33
70294;DHT22;74367;35.280;-77.632;2024-02-16T15:00:52;15.66;57.45
70294;DHT22;74367;35.280;-77.632;2024-02-16T15:03:18;15.75;57.40
70294;DHT22;74367;35.280;-77.632;2024-02-16T15:05:46;15.69;60.74
70294;DHT22;74367;35.280;-77.632;2024-02-16T15:08:12;15.61;60.97
70294;DHT22;74367;35.280;-77.632;2024-02-16T15:10:38;15.58;55.41